Time;durP1;ratioP1;P1;durP2;ratioP2;P2;SDS_P1;SDS_P2;PMS_P1;PMS_P2;Temp;Humidity;BMP_temperature;BMP_pressure;BME280_temperature;BME280_humidity;BME280_pressure;Samples;Min_cycle;Max_cycle;Signal;HPM_P1;HPM_P2
2024/02/25 00:01:26;;;;;;;;;;;;;;;16.88;47.02;101018.50;5020225;28;1187;-51
2024/02/25 00:03:52;;;;;;;;;;;;;;;16.80;46.60;101013.53;5031703;28;1059;-48
2024/02/25 00:06:17;;;;;;;;;;;;;;;16.69;46.37;101013.50;5020138;28;1016;-49
2024/02/25 00:08:43;;;;;;;;;;;;;;;17.73;47.96;101012.59;5039221;28;870;-51
2024/02/25 00:11:08;;;;;;;;;;;;;;;17.83;48.75;101013.72;5038689;28;1134;-50
2024/02/25 00:13:34;;;;;;;;;;;;;;;17.19;48.66;101007.59;5026595;28;1910;-50
2024/02/25 00:15:59;;;;;;;;;;;;;;;16.90;47.66;101016.31;5038543;28;1078;-49
2024/02/25 00:18:25;;;;;;;;;;;;;;;18.00;48.46;101010.69;5019672;28;1035;-52
2024/02/25 00:20:50;;;;;;;;;;;;;;;17.17;48.86;101007.88;5033622;28;908;-51
2024/02/25 00:23:16;;;;;;;;;;;;;;;17.00;47.81;101008.13;5039348;28;1031;-49
2024/02/25 00:25:41;;;;;;;;;;;;;;;16.63;47.51;101010.97;5038273;28;1106;-51
2024/02/25 00:28:07;;;;;;;;;;;;;;;18.30;47.97;101007.06;5026005;28;1143;-52
2024/02/25 00:30:32;;;;;;;;;;;;;;;17.36;49.18;101001.84;5026228;28;995;-53
2024/02/25 00:32:58;;;;;;;;;;;;;;;17.06;48.34;101003.47;5050581;28;1914;-52
2024/02/25 00:35:23;;;;;;;;;;;;;;;16.86;47.71;101002.28;5031316;28;1087;-54
2024/02/25 00:37:49;;;;;;;;;;;;;;;16.71;47.08;100999.50;5025446;28;1011;-53
2024/02/25 00:40:14;;;;;;;;;;;;;;;18.24;47.78;100994.41;5026219;28;1099;-51
2024/02/25 00:42:40;;;;;;;;;;;;;;;17.65;48.74;101006.84;5032067;28;1202;-49
2024/02/25 00:45:06;;;;;;;;;;;;;;;17.12;48.51;101007.88;5033454;28;943;-49
2024/02/25 00:47:31;;;;;;;;;;;;;;;16.91;47.72;101004.25;5038397;28;1075;-50
2024/02/25 00:49:57;;;;;;;;;;;;;;;17.09;48.05;101000.97;5038476;28;1190;-51
2024/02/25 00:52:24;;;;;;;;;;;;;;;17.93;48.49;100999.97;5025414;28;1986;-51
2024/02/25 00:54:50;;;;;;;;;;;;;;;17.15;48.70;100995.50;5038300;28;1256;-48
2024/02/25 00:57:15;;;;;;;;;;;;;;;16.98;48.07;100985.59;5033749;28;1107;-46
2024/02/25 00:59:41;;;;;;;;;;;;;;;16.71;47.62;100989.31;5018332;28;1107;-48
2024/02/25 01:02:06;;;;;;;;;;;;;;;17.48;48.42;100987.88;5037864;28;1051;-47
2024/02/25 01:04:32;;;;;;;;;;;;;;;18.21;48.02;100982.00;5025893;28;1056;-47
2024/02/25 01:06:57;;;;;;;;;;;;;;;17.31;49.16;100980.69;5018385;28;1211;-47
2024/02/25 01:09:23;;;;;;;;;;;;;;;16.99;48.45;100986.44;5032866;28;919;-50
2024/02/25 01:11:49;;;;;;;;;;;;;;;16.77;47.91;100976.44;5031696;28;1068;-49
2024/02/25 01:14:16;;;;;;;;;;;;;;;16.74;47.08;100985.22;5018425;28;1910;-49
2024/02/25 01:16:41;;;;;;;;;;;;;;;18.23;47.89;100981.72;5036996;28;1035;-48
2024/02/25 01:19:07;;;;;;;;;;;;;;;17.21;49.06;100975.19;5025592;28;1039;-50
2024/02/25 01:21:32;;;;;;;;;;;;;;;16.95;48.29;100964.16;5036534;28;1104;-48
2024/02/25 01:23:58;;;;;;;;;;;;;;;16.73;47.68;100969.81;5038382;28;1135;-50
2024/02/25 01:26:24;;;;;;;;;;;;;;;18.08;48.10;100974.34;5037432;28;1063;-47
2024/02/25 01:28:49;;;;;;;;;;;;;;;17.36;49.07;100972.47;5037853;28;1090;-49
2024/02/25 01:31:14;;;;;;;;;;;;;;;17.09;48.24;100954.28;5038116;28;1134;-50
2024/02/25 01:33:40;;;;;;;;;;;;;;;16.84;47.59;100967.94;5037743;28;1906;-50
2024/02/25 01:36:06;;;;;;;;;;;;;;;16.60;46.87;100961.00;5037730;28;1124;-50
2024/02/25 01:38:32;;;;;;;;;;;;;;;17.46;48.02;100966.16;5037408;28;1111;-50
2024/02/25 01:40:57;;;;;;;;;;;;;;;17.53;48.95;100965.84;5032597;28;1051;-50
2024/02/25 01:43:23;;;;;;;;;;;;;;;16.96;48.76;100965.81;5017870;28;1012;-47
2024/02/25 01:45:49;;;;;;;;;;;;;;;17.49;48.71;100962.00;5035339;28;1036;-47
2024/02/25 01:48:15;;;;;;;;;;;;;;;17.88;48.20;100954.00;5037344;28;1123;-49
2024/02/25 01:50:41;;;;;;;;;;;;;;;17.14;48.76;100952.63;5031999;28;1080;-51
2024/02/25 01:53:07;;;;;;;;;;;;;;;17.34;48.64;100963.66;5017480;28;1989;-49
2024/02/25 01:55:34;;;;;;;;;;;;;;;18.35;47.77;100957.47;5049104;28;1230;-45
2024/02/25 01:58:01;;;;;;;;;;;;;;;17.38;48.42;100961.19;5023112;28;853;-51
2024/02/25 02:00:29;;;;;;;;;;;;;;;17.02;48.05;100955.66;5036105;28;1098;-47
2024/02/25 02:02:55;;;;;;;;;;;;;;;17.82;48.56;100957.84;5024549;28;1163;-50
2024/02/25 02:05:21;;;;;;;;;;;;;;;17.24;49.02;100949.91;5024060;28;1183;-51
2024/02/25 02:07:49;;;;;;;;;;;;;;;17.05;47.96;100960.59;5036824;28;1230;-49
2024/02/25 02:10:14;;;;;;;;;;;;;;;16.84;47.16;100959.69;5055337;28;905;-49
2024/02/25 02:12:40;;;;;;;;;;;;;;;16.69;46.56;100966.81;5036663;28;1984;-51
2024/02/25 02:15:07;;;;;;;;;;;;;;;17.68;47.92;100971.34;5024184;28;1036;-50
2024/02/25 02:17:33;;;;;;;;;;;;;;;17.00;48.54;100972.41;5036753;28;1323;-52
2024/02/25 02:20:00;;;;;;;;;;;;;;;16.85;48.20;100969.59;5036135;28;1564;-47
2024/02/25 02:22:26;;;;;;;;;;;;;;;18.16;47.80;100971.03;5036910;28;1079;-50
2024/02/25 02:24:52;;;;;;;;;;;;;;;17.19;48.49;100974.63;5036718;28;1336;-48
2024/02/25 02:27:18;;;;;;;;;;;;;;;16.87;47.73;100972.88;5036427;28;1184;-49
2024/02/25 02:29:43;;;;;;;;;;;;;;;16.73;47.20;100973.41;5036278;28;1102;-51
2024/02/25 02:32:09;;;;;;;;;;;;;;;17.84;48.14;100969.41;5036607;28;951;-45
2024/02/25 02:34:35;;;;;;;;;;;;;;;17.51;48.76;100976.31;5023524;28;1901;-49
2024/02/25 02:37:01;;;;;;;;;;;;;;;16.95;48.25;100980.63;5036949;28;1245;-50
2024/02/25 02:39:26;;;;;;;;;;;;;;;16.74;47.52;100980.53;5035947;28;1225;-49
2024/02/25 02:41:52;;;;;;;;;;;;;;;18.21;47.81;100970.19;5036338;28;1115;-52
2024/02/25 02:44:18;;;;;;;;;;;;;;;17.28;48.74;100973.81;5036314;28;1091;-56
2024/02/25 02:46:44;;;;;;;;;;;;;;;17.00;47.99;100977.91;5036514;28;1071;-56
2024/02/25 02:49:09;;;;;;;;;;;;;;;16.84;47.02;100985.22;5036325;28;1032;-55
2024/02/25 02:51:35;;;;;;;;;;;;;;;16.65;46.73;100984.91;5036605;28;1059;-56
2024/02/25 02:54:02;;;;;;;;;;;;;;;18.15;47.67;100980.38;5036002;28;1981;-54
2024/02/25 02:56:32;;;;;;;;;;;;;;;17.47;48.91;100978.78;5025027;28;1226;-54
2024/02/25 02:58:58;;;;;;;;;;;;;;;17.08;48.45;100984.78;5017108;28;1146;-51
2024/02/25 03:01:23;;;;;;;;;;;;;;;16.78;47.76;100986.31;5029462;28;1098;-52
2024/02/25 03:03:49;;;;;;;;;;;;;;;16.65;46.98;100976.69;5023911;28;1047;-50
2024/02/25 03:06:17;;;;;;;;;;;;;;;17.93;47.97;100980.69;5035977;28;1102;-53
2024/02/25 03:08:42;;;;;;;;;;;;;;;17.18;49.03;100978.47;5035963;28;1056;-52
2024/02/25 03:11:07;;;;;;;;;;;;;;;16.92;48.09;100978.44;5035915;28;1004;-54
2024/02/25 03:13:33;;;;;;;;;;;;;;;16.74;47.22;100974.22;5029365;28;1965;-53
2024/02/25 03:15:59;;;;;;;;;;;;;;;17.70;48.16;100988.41;5016182;28;1445;-54
2024/02/25 03:18:24;;;;;;;;;;;;;;;18.06;48.03;100980.13;5061439;28;1256;-55
2024/02/25 03:20:50;;;;;;;;;;;;;;;17.22;48.47;100979.56;5019077;28;1016;-55
2024/02/25 03:23:15;;;;;;;;;;;;;;;16.84;48.09;100985.22;5016726;28;1231;-55
2024/02/25 03:25:41;;;;;;;;;;;;;;;16.75;47.28;100982.19;5016431;28;1132;-54
2024/02/25 03:28:06;;;;;;;;;;;;;;;16.76;47.26;100977.56;5016412;28;1134;-54
2024/02/25 03:30:32;;;;;;;;;;;;;;;17.53;48.30;100979.59;5029046;28;1252;-55
2024/02/25 03:33:01;;;;;;;;;;;;;;;16.88;48.79;100983.63;5025350;28;1971;-55
2024/02/25 03:35:29;;;;;;;;;;;;;;;17.99;48.07;100976.81;5026760;28;1388;-51
2024/02/25 03:37:55;;;;;;;;;;;;;;;17.48;48.65;100977.69;5039746;28;1182;-55
2024/02/25 03:40:24;;;;;;;;;;;;;;;17.03;48.15;100971.06;5039592;28;1052;-55
2024/02/25 03:42:49;;;;;;;;;;;;;;;16.73;47.51;100984.41;5031480;28;1114;-55
2024/02/25 03:45:15;;;;;;;;;;;;;;;17.69;48.44;100983.19;5024962;28;1028;-54
2024/02/25 03:47:41;;;;;;;;;;;;;;;17.03;48.84;100988.34;5039562;28;1044;-55
2024/02/25 03:50:09;;;;;;;;;;;;;;;16.84;47.88;100979.75;5039757;28;1154;-54
2024/02/25 03:52:34;;;;;;;;;;;;;;;16.69;47.18;100983.28;5039226;28;1989;-55
2024/02/25 03:55:00;;;;;;;;;;;;;;;16.70;47.45;100976.69;5038199;28;1238;-55
2024/02/25 03:57:25;;;;;;;;;;;;;;;17.52;48.31;100981.53;5027092;28;1067;-55
2024/02/25 03:59:51;;;;;;;;;;;;;;;16.87;48.57;100973.72;5038192;28;1043;-55
2024/02/25 04:02:16;;;;;;;;;;;;;;;16.59;47.94;100978.59;5019691;28;1131;-55
2024/02/25 04:04:46;;;;;;;;;;;;;;;17.13;48.04;100973.00;5020115;28;1195;-55
2024/02/25 04:07:14;;;;;;;;;;;;;;;18.17;47.49;100966.34;5028054;28;1056;-56
2024/02/25 04:09:40;;;;;;;;;;;;;;;17.13;48.85;100965.56;5038786;28;1055;-55
2024/02/25 04:12:07;;;;;;;;;;;;;;;16.82;48.09;100972.91;5038673;28;1071;-54
2024/02/25 04:14:36;;;;;;;;;;;;;;;17.87;48.01;100973.53;5024871;28;1914;-56
2024/02/25 04:17:01;;;;;;;;;;;;;;;17.04;48.77;100981.75;5027608;28;1148;-57
2024/02/25 04:19:27;;;;;;;;;;;;;;;16.79;48.38;100982.50;5024144;28;1118;-52
2024/02/25 04:21:52;;;;;;;;;;;;;;;17.11;48.45;100973.25;5027298;28;1253;-51
2024/02/25 04:24:18;;;;;;;;;;;;;;;17.82;48.43;100979.03;5037280;28;1064;-52
2024/02/25 04:26:43;;;;;;;;;;;;;;;16.99;49.05;100973.50;5020624;28;1349;-52
2024/02/25 04:29:09;;;;;;;;;;;;;;;16.74;48.27;100974.22;5029418;28;1384;-53
2024/02/25 04:31:39;;;;;;;;;;;;;;;18.36;47.73;100986.66;5032111;28;1059;-53
2024/02/25 04:34:04;;;;;;;;;;;;;;;17.50;48.87;100982.91;5037875;28;1906;-50
2024/02/25 04:36:30;;;;;;;;;;;;;;;17.05;48.37;100972.41;5038626;28;1128;-52
2024/02/25 04:38:55;;;;;;;;;;;;;;;16.88;47.24;100975.41;5032379;28;1162;-56
2024/02/25 04:41:21;;;;;;;;;;;;;;;17.21;48.09;100983.44;5031792;28;1036;-55
2024/02/25 04:43:47;;;;;;;;;;;;;;;17.65;48.72;100988.41;5030567;28;1120;-56
2024/02/25 04:46:13;;;;;;;;;;;;;;;17.01;48.65;100987.81;5031861;28;1130;-55
2024/02/25 04:48:39;;;;;;;;;;;;;;;17.45;48.85;100984.56;5024400;28;1095;-58
2024/02/25 04:51:04;;;;;;;;;;;;;;;17.27;48.86;100982.34;5038465;28;1035;-57
2024/02/25 04:53:30;;;;;;;;;;;;;;;17.67;48.70;100991.72;5037769;28;1921;-57
2024/02/25 04:55:55;;;;;;;;;;;;;;;18.64;47.06;100987.09;5025898;28;1190;-52
2024/02/25 04:58:21;;;;;;;;;;;;;;;17.48;48.75;100985.13;5037107;28;1114;-57
2024/02/25 05:00:46;;;;;;;;;;;;;;;17.15;49.14;100984.53;5038194;28;1141;-57
2024/02/25 05:03:12;;;;;;;;;;;;;;;18.41;47.63;100978.38;5035541;28;1473;-60
2024/02/25 05:05:37;;;;;;;;;;;;;;;17.49;48.74;100990.34;5037944;28;1029;-56
2024/02/25 05:08:03;;;;;;;;;;;;;;;17.15;48.27;100990.00;5038583;28;1067;-57
2024/02/25 05:10:29;;;;;;;;;;;;;;;16.96;47.66;100986.94;5028211;28;1197;-57
2024/02/25 05:12:54;;;;;;;;;;;;;;;16.97;47.42;100986.69;5038327;28;1917;-57
2024/02/25 05:15:20;;;;;;;;;;;;;;;17.71;46.52;100992.81;5037905;28;1082;-55
2024/02/25 05:17:45;;;;;;;;;;;;;;;17.22;47.57;100990.56;5033388;28;1107;-54
2024/02/25 05:20:11;;;;;;;;;;;;;;;16.91;48.59;100982.28;5029494;28;1107;-57
2024/02/25 05:22:36;;;;;;;;;;;;;;;16.77;48.88;100988.25;5037719;28;1163;-58
2024/02/25 05:25:03;;;;;;;;;;;;;;;16.66;49.37;100999.47;5032704;28;1098;-57
2024/02/25 05:27:36;;;;;;;;;;;;;;;16.46;49.62;101011.19;5037163;28;1357;-55
2024/02/25 05:30:04;;;;;;;;;;;;;;;16.28;50.35;101009.72;5037850;28;1266;-56
2024/02/25 05:32:30;;;;;;;;;;;;;;;16.25;50.50;101014.63;5037645;28;2789;-57
2024/02/25 05:34:55;;;;;;;;;;;;;;;16.09;50.76;101018.38;5036048;28;1037;-56
2024/02/25 05:37:22;;;;;;;;;;;;;;;15.99;51.14;101016.41;5037074;28;1206;-55
2024/02/25 05:39:48;;;;;;;;;;;;;;;15.91;51.51;101011.41;5036817;28;1211;-53
2024/02/25 05:42:14;;;;;;;;;;;;;;;15.80;51.64;101015.97;5028828;28;1273;-56
2024/02/25 05:44:39;;;;;;;;;;;;;;;15.71;51.51;101018.34;5035915;28;1270;-56
2024/02/25 05:47:05;;;;;;;;;;;;;;;15.57;51.97;101023.44;5037584;28;1020;-57
2024/02/25 05:49:30;;;;;;;;;;;;;;;15.47;52.06;101017.03;5037424;28;1088;-56
2024/02/25 05:51:56;;;;;;;;;;;;;;;15.37;52.44;101015.84;5037122;28;1117;-54
2024/02/25 05:54:21;;;;;;;;;;;;;;;15.39;52.14;101016.44;5036504;28;1901;-55
2024/02/25 05:56:47;;;;;;;;;;;;;;;16.86;49.44;101015.19;5036933;28;1127;-55
2024/02/25 05:59:12;;;;;;;;;;;;;;;17.27;48.09;101013.38;5036931;28;1183;-57
2024/02/25 06:01:38;;;;;;;;;;;;;;;16.39;50.27;101012.22;5027120;28;2688;-55
2024/02/25 06:04:04;;;;;;;;;;;;;;;16.08;51.25;101019.47;5030775;28;1198;-58
2024/02/25 06:06:29;;;;;;;;;;;;;;;15.84;51.83;101021.78;5017380;28;1106;-58
2024/02/25 06:08:55;;;;;;;;;;;;;;;15.68;52.17;101016.16;5036005;28;1048;-56
2024/02/25 06:11:20;;;;;;;;;;;;;;;15.62;52.09;101025.41;5036842;28;908;-58
2024/02/25 06:13:46;;;;;;;;;;;;;;;15.54;52.45;101023.13;5036376;28;1917;-61
2024/02/25 06:16:11;;;;;;;;;;;;;;;16.26;51.16;101018.22;5023628;28;1104;-62
2024/02/25 06:18:40;;;;;;;;;;;;;;;17.51;47.84;101021.13;5036821;28;1031;-48
2024/02/25 06:21:05;;;;;;;;;;;;;;;16.50;50.13;101017.78;5036840;28;1047;-55
2024/02/25 06:23:31;;;;;;;;;;;;;;;16.06;51.36;101024.38;5022709;28;903;-55
2024/02/25 06:25:57;;;;;;;;;;;;;;;15.85;52.03;101023.41;5036194;28;1063;-54
2024/02/25 06:28:26;;;;;;;;;;;;;;;15.71;52.12;101012.03;5036337;28;1102;-56
2024/02/25 06:30:52;;;;;;;;;;;;;;;15.58;52.61;101010.56;5019925;28;2444;-55
2024/02/25 06:33:17;;;;;;;;;;;;;;;15.49;52.55;101015.69;5029820;28;1902;-55
2024/02/25 06:35:43;;;;;;;;;;;;;;;16.50;50.72;101006.81;5036230;28;904;-55
2024/02/25 06:38:08;;;;;;;;;;;;;;;17.58;47.76;101004.34;5036330;28;1190;-55
2024/02/25 06:40:34;;;;;;;;;;;;;;;16.53;50.36;101017.25;5036659;28;1059;-56
2024/02/25 06:42:59;;;;;;;;;;;;;;;16.17;51.16;101004.19;5036403;28;1060;-56
2024/02/25 06:45:25;;;;;;;;;;;;;;;15.87;51.97;101004.78;5029070;28;1283;-56
2024/02/25 06:47:50;;;;;;;;;;;;;;;15.81;52.24;101023.13;5031522;28;1243;-57
2024/02/25 06:50:17;;;;;;;;;;;;;;;15.64;52.49;101012.28;5032679;28;1172;-58
2024/02/25 06:52:42;;;;;;;;;;;;;;;15.52;52.91;101019.84;5035779;28;1902;-54
2024/02/25 06:55:08;;;;;;;;;;;;;;;15.50;53.07;101022.00;5036026;28;1135;-58
2024/02/25 06:57:33;;;;;;;;;;;;;;;17.07;49.46;101027.91;5035689;28;1145;-57
2024/02/25 07:00:00;;;;;;;;;;;;;;;17.25;48.58;101023.00;5035966;28;862;-55
2024/02/25 07:02:25;;;;;;;;;;;;;;;16.39;50.68;101016.91;5031086;28;2425;-57
2024/02/25 07:04:51;;;;;;;;;;;;;;;16.04;51.82;101015.59;5036194;28;1008;-58
2024/02/25 07:07:17;;;;;;;;;;;;;;;15.83;52.23;101017.38;5040015;28;1095;-57
2024/02/25 07:09:42;;;;;;;;;;;;;;;15.69;52.41;101015.03;5040383;28;1166;-56
2024/02/25 07:12:08;;;;;;;;;;;;;;;15.53;52.76;101024.22;5039805;28;976;-56
2024/02/25 07:14:34;;;;;;;;;;;;;;;15.84;52.61;101021.78;5040160;28;1909;-56
2024/02/25 07:16:59;;;;;;;;;;;;;;;17.29;48.91;101029.59;5040021;28;997;-55
2024/02/25 07:19:25;;;;;;;;;;;;;;;16.73;49.97;101030.25;5037949;28;1282;-57
2024/02/25 07:21:51;;;;;;;;;;;;;;;16.12;51.54;101027.97;5035976;28;1224;-57
2024/02/25 07:24:16;;;;;;;;;;;;;;;15.95;52.03;101029.00;5039435;28;1031;-55
2024/02/25 07:26:42;;;;;;;;;;;;;;;15.73;52.76;101029.88;5039035;28;1117;-54
2024/02/25 07:29:08;;;;;;;;;;;;;;;15.64;52.69;101025.97;5039270;28;1492;-59
2024/02/25 07:31:33;;;;;;;;;;;;;;;16.33;51.51;101027.03;5037835;28;1952;-59
2024/02/25 07:33:59;;;;;;;;;;;;;;;17.59;48.07;101015.06;5038820;28;1984;-55
2024/02/25 07:36:24;;;;;;;;;;;;;;;16.63;50.62;101022.78;5038472;28;1274;-56
2024/02/25 07:38:50;;;;;;;;;;;;;;;16.12;51.62;101017.84;5039073;28;1190;-55
2024/02/25 07:41:15;;;;;;;;;;;;;;;15.94;52.35;101010.88;5036761;28;1292;-55
2024/02/25 07:43:41;;;;;;;;;;;;;;;15.86;52.23;101000.38;5039601;28;1223;-57
2024/02/25 07:46:06;;;;;;;;;;;;;;;15.65;53.01;100997.44;5039323;28;1222;-56
2024/02/25 07:48:32;;;;;;;;;;;;;;;15.57;53.03;101000.66;5038312;28;1281;-58
2024/02/25 07:50:58;;;;;;;;;;;;;;;15.98;52.51;100995.53;5037349;28;1218;-56
2024/02/25 07:53:23;;;;;;;;;;;;;;;17.37;48.85;101001.59;5038815;28;1897;-55
2024/02/25 07:55:49;;;;;;;;;;;;;;;16.88;50.03;101004.75;5038617;28;1265;-54
2024/02/25 07:58:14;;;;;;;;;;;;;;;16.31;51.38;100996.28;5037051;28;1203;-49
2024/02/25 08:00:40;;;;;;;;;;;;;;;15.98;52.36;101001.03;5036889;28;2453;-51
2024/02/25 08:03:06;;;;;;;;;;;;;;;15.83;52.82;101003.66;5038351;28;1163;-56
2024/02/25 08:05:31;;;;;;;;;;;;;;;15.65;53.17;100997.44;5037914;28;1308;-55
2024/02/25 08:07:56;;;;;;;;;;;;;;;15.58;53.34;100996.84;5038639;28;1415;-58
2024/02/25 08:10:22;;;;;;;;;;;;;;;16.99;50.05;100994.66;5033465;28;1310;-57
2024/02/25 08:12:48;;;;;;;;;;;;;;;17.22;49.05;100988.66;5038160;28;1905;-56
2024/02/25 08:15:13;;;;;;;;;;;;;;;16.44;51.41;100992.25;5039190;28;1115;-57
2024/02/25 08:17:39;;;;;;;;;;;;;;;16.07;52.14;100988.47;5025437;28;1079;-57
2024/02/25 08:20:05;;;;;;;;;;;;;;;15.96;52.58;100997.72;5037943;28;1107;-57
2024/02/25 08:22:31;;;;;;;;;;;;;;;15.68;53.05;100996.94;5037688;28;1024;-57
2024/02/25 08:24:56;;;;;;;;;;;;;;;15.67;53.03;100997.19;5038880;28;937;-56
2024/02/25 08:27:28;;;;;;;;;;;;;;;15.84;52.99;100991.63;5038842;28;1119;-57
2024/02/25 08:29:53;;;;;;;;;;;;;;;17.29;49.39;100985.63;5039064;28;1202;-57
2024/02/25 08:32:19;;;;;;;;;;;;;;;17.13;49.58;100984.78;5028341;28;2556;-56
2024/02/25 08:34:44;;;;;;;;;;;;;;;16.39;51.63;100976.56;5037810;28;1901;-57
2024/02/25 08:37:11;;;;;;;;;;;;;;;16.12;52.36;100973.97;5028617;28;855;-57
2024/02/25 08:39:36;;;;;;;;;;;;;;;15.85;53.00;100974.06;5035443;28;893;-56
2024/02/25 08:42:02;;;;;;;;;;;;;;;15.82;52.79;100974.59;5038347;28;1216;-57
2024/02/25 08:44:27;;;;;;;;;;;;;;;15.69;53.15;100981.31;5038356;28;1058;-56
2024/02/25 08:46:53;;;;;;;;;;;;;;;15.76;53.47;100986.59;5038462;28;1039;-57
2024/02/25 08:49:19;;;;;;;;;;;;;;;17.27;49.77;100993.34;5038105;28;957;-57
2024/02/25 08:51:44;;;;;;;;;;;;;;;17.14;49.77;100991.94;5038253;28;1285;-57
2024/02/25 08:54:10;;;;;;;;;;;;;;;16.45;51.60;100999.34;5038051;28;1906;-58
2024/02/25 08:56:35;;;;;;;;;;;;;;;16.06;52.52;100995.06;5035100;28;1243;-55
2024/02/25 08:59:01;;;;;;;;;;;;;;;15.87;52.89;100989.16;5032965;28;1033;-57
2024/02/25 09:01:27;;;;;;;;;;;;;;;15.86;52.85;100986.69;5035884;28;2530;-57
2024/02/25 09:03:52;;;;;;;;;;;;;;;15.58;53.41;100988.63;5035947;28;1250;-57
2024/02/25 09:06:18;;;;;;;;;;;;;;;16.53;51.58;100989.81;5036307;28;1286;-57
2024/02/25 09:08:43;;;;;;;;;;;;;;;17.60;48.61;100986.47;5033464;28;1399;-60
2024/02/25 09:11:09;;;;;;;;;;;;;;;16.60;51.26;100984.88;5034342;28;1206;-59
2024/02/25 09:13:34;;;;;;;;;;;;;;;16.19;52.42;100996.50;5035689;28;1903;-59
2024/02/25 09:16:00;;;;;;;;;;;;;;;15.95;52.81;100990.59;5033545;28;1309;-61
2024/02/25 09:18:25;;;;;;;;;;;;;;;15.78;53.15;100985.25;5034422;28;1214;-61
2024/02/25 09:20:51;;;;;;;;;;;;;;;15.70;53.29;100980.25;5036447;28;1076;-57
2024/02/25 09:23:16;;;;;;;;;;;;;;;15.54;54.04;100979.28;5036005;28;1214;-61
2024/02/25 09:25:43;;;;;;;;;;;;;;;17.04;50.57;100987.25;5037331;28;1083;-57
2024/02/25 09:28:16;;;;;;;;;;;;;;;17.19;49.63;100985.63;5037131;28;1165;-58
2024/02/25 09:30:43;;;;;;;;;;;;;;;16.35;52.08;100982.84;5036671;28;2543;-58
2024/02/25 09:33:09;;;;;;;;;;;;;;;16.05;52.49;100979.69;5036353;28;1974;-59
2024/02/25 09:35:35;;;;;;;;;;;;;;;15.82;53.10;100967.22;5037349;28;1073;-58
2024/02/25 09:38:00;;;;;;;;;;;;;;;15.73;53.39;100969.56;5035059;28;1309;-58
2024/02/25 09:40:26;;;;;;;;;;;;;;;15.60;53.77;100972.75;5032798;28;1098;-60
2024/02/25 09:42:52;;;;;;;;;;;;;;;16.99;50.49;100969.94;5037041;28;1102;-58
2024/02/25 09:45:21;;;;;;;;;;;;;;;17.14;49.78;100961.72;5035923;28;1079;-60
2024/02/25 09:47:48;;;;;;;;;;;;;;;16.32;52.05;100962.25;5035813;28;1064;-61
2024/02/25 09:50:14;;;;;;;;;;;;;;;15.97;52.90;100966.47;5037104;28;1214;-57
2024/02/25 09:52:40;;;;;;;;;;;;;;;15.85;53.25;100954.84;5037473;28;1902;-58
2024/02/25 09:55:05;;;;;;;;;;;;;;;15.71;53.40;100962.69;5034645;28;1206;-56
2024/02/25 09:57:31;;;;;;;;;;;;;;;15.60;53.90;100967.28;5026575;28;1070;-58
2024/02/25 09:59:57;;;;;;;;;;;;;;;16.43;52.09;100957.66;5036610;28;1013;-56
2024/02/25 10:02:22;;;;;;;;;;;;;;;17.61;48.96;100948.81;5037435;28;2974;-57
2024/02/25 10:04:48;;;;;;;;;;;;;;;16.78;50.90;100950.63;5036741;28;1066;-58
2024/02/25 10:07:17;;;;;;;;;;;;;;;16.29;52.19;100949.06;5028109;28;1182;-57
2024/02/25 10:09:42;;;;;;;;;;;;;;;16.00;52.98;100938.50;5034856;28;1380;-58
2024/02/25 10:12:08;;;;;;;;;;;;;;;15.83;53.17;100946.09;5033833;28;1198;-58
2024/02/25 10:14:34;;;;;;;;;;;;;;;15.69;53.62;100943.75;5066146;28;1909;-58
2024/02/25 10:17:03;;;;;;;;;;;;;;;15.83;53.61;100944.16;5036348;28;1175;-57
2024/02/25 10:19:28;;;;;;;;;;;;;;;17.36;49.48;100944.97;5035957;28;1449;-58
2024/02/25 10:22:14;;;;;;;;;;;;;;;16.82;50.69;100940.75;5036022;28;1238;-58
2024/02/25 10:24:40;;;;;;;;;;;;;;;16.21;52.29;100938.59;5033501;28;1188;-59
2024/02/25 10:27:12;;;;;;;;;;;;;;;16.08;52.77;100940.72;5036450;28;1318;-57
2024/02/25 10:29:53;;;;;;;;;;;;;;;15.84;53.17;100934.03;5035702;28;1238;-58
2024/02/25 10:32:28;;;;;;;;;;;;;;;15.71;53.44;100925.16;5025806;28;2653;-59
2024/02/25 10:34:54;;;;;;;;;;;;;;;15.66;53.52;100927.03;5036595;28;1980;-58
2024/02/25 10:37:23;;;;;;;;;;;;;;;16.72;51.59;100921.50;5036208;28;1091;-61
2024/02/25 10:39:50;;;;;;;;;;;;;;;17.47;49.32;100903.72;5036308;28;1028;-60
2024/02/25 10:42:15;;;;;;;;;;;;;;;16.40;52.03;100920.59;5035714;28;949;-58
2024/02/25 10:44:41;;;;;;;;;;;;;;;16.15;52.70;100918.56;5023318;28;1129;-59
2024/02/25 10:47:07;;;;;;;;;;;;;;;15.93;53.22;100910.47;5034771;28;1263;-59
2024/02/25 10:49:32;;;;;;;;;;;;;;;15.86;53.08;100910.72;5028948;28;1374;-58
2024/02/25 10:51:58;;;;;;;;;;;;;;;16.49;52.06;100904.41;5036410;28;1004;-58
2024/02/25 10:54:23;;;;;;;;;;;;;;;17.69;48.69;100898.75;5035322;28;1991;-59
2024/02/25 10:56:49;;;;;;;;;;;;;;;16.64;51.45;100898.16;5034487;28;1123;-58
2024/02/25 10:59:16;;;;;;;;;;;;;;;16.22;52.34;100901.84;5032811;28;1001;-59
2024/02/25 11:01:43;;;;;;;;;;;;;;;16.10;52.73;100893.03;5035801;28;2418;-58
2024/02/25 11:04:08;;;;;;;;;;;;;;;15.92;53.37;100892.38;5024993;28;1122;-59
2024/02/25 11:06:37;;;;;;;;;;;;;;;15.84;53.22;100888.22;5029639;28;1087;-57
2024/02/25 11:09:05;;;;;;;;;;;;;;;15.66;53.56;100883.97;5016672;28;1122;-59
2024/02/25 11:11:31;;;;;;;;;;;;;;;16.25;52.76;100879.38;5024655;28;1124;-57
2024/02/25 11:14:00;;;;;;;;;;;;;;;17.56;49.35;100877.34;5035109;28;1918;-58
2024/02/25 11:16:29;;;;;;;;;;;;;;;16.74;51.00;100873.44;5065881;28;1249;-57
2024/02/25 11:18:56;;;;;;;;;;;;;;;16.25;52.50;100873.88;5033785;28;1238;-57
2024/02/25 11:21:22;;;;;;;;;;;;;;;16.07;52.83;100867.78;5028358;28;1108;-57
2024/02/25 11:23:47;;;;;;;;;;;;;;;15.89;53.17;100871.81;5034635;28;1186;-58
2024/02/25 11:26:32;;;;;;;;;;;;;;;15.71;53.73;100869.47;5036019;28;1035;-56
2024/02/25 11:29:17;;;;;;;;;;;;;;;15.70;53.56;100867.84;5024707;28;965;-59
2024/02/25 11:31:49;;;;;;;;;;;;;;;17.08;50.45;100864.72;5035743;28;2672;-61
2024/02/25 11:34:16;;;;;;;;;;;;;;;17.28;49.65;100858.38;5036037;28;1913;-57
2024/02/25 11:36:42;;;;;;;;;;;;;;;16.44;52.05;100860.50;5034961;28;1134;-57
2024/02/25 11:39:08;;;;;;;;;;;;;;;16.06;52.90;100854.31;5025106;28;1551;-56
2024/02/25 11:41:34;;;;;;;;;;;;;;;15.95;53.43;100856.22;5030014;28;1298;-58
2024/02/25 11:44:00;;;;;;;;;;;;;;;15.82;53.74;100842.97;5029924;28;1448;-56
2024/02/25 11:46:26;;;;;;;;;;;;;;;15.71;53.66;100848.38;5031997;28;965;-57
2024/02/25 11:48:52;;;;;;;;;;;;;;;15.63;53.77;100842.59;5035681;28;1035;-54
2024/02/25 11:51:18;;;;;;;;;;;;;;;15.63;54.08;100846.13;5035899;28;1036;-60
2024/02/25 11:53:48;;;;;;;;;;;;;;;17.02;50.80;100849.31;5037799;28;1945;-58
2024/02/25 11:56:14;;;;;;;;;;;;;;;17.17;50.33;100834.78;5038152;28;1082;-57
2024/02/25 11:58:39;;;;;;;;;;;;;;;16.41;52.32;100842.66;5039482;28;1040;-59
2024/02/25 12:01:05;;;;;;;;;;;;;;;16.12;52.97;100849.66;5039333;28;2289;-57
2024/02/25 12:03:30;;;;;;;;;;;;;;;15.94;53.52;100849.06;5039597;28;996;-56
2024/02/25 12:05:56;;;;;;;;;;;;;;;15.80;53.93;100848.72;5038242;28;1463;-57
2024/02/25 12:08:22;;;;;;;;;;;;;;;15.55;54.32;100849.38;5039018;28;1054;-57
2024/02/25 12:10:48;;;;;;;;;;;;;;;15.50;54.42;100852.91;5035334;28;1118;-57
2024/02/25 12:13:14;;;;;;;;;;;;;;;16.20;53.10;100849.16;5037210;28;1906;-56
2024/02/25 12:15:42;;;;;;;;;;;;;;;17.42;50.19;100842.16;5034366;28;1254;-57
2024/02/25 12:18:08;;;;;;;;;;;;;;;16.76;51.39;100837.50;5036355;28;1009;-56
2024/02/25 12:20:34;;;;;;;;;;;;;;;16.21;52.79;100839.84;5035078;28;1321;-57
2024/02/25 12:23:00;;;;;;;;;;;;;;;15.88;53.60;100848.22;5037865;28;1333;-57
2024/02/25 12:25:26;;;;;;;;;;;;;;;15.85;53.83;100842.44;5060964;28;1031;-59
2024/02/25 12:28:04;;;;;;;;;;;;;;;15.72;53.69;100838.22;5031009;28;1365;-59
2024/02/25 12:30:31;;;;;;;;;;;;;;;15.55;54.25;100835.66;5023455;28;1986;-58
2024/02/25 12:32:57;;;;;;;;;;;;;;;16.52;52.42;100840.75;5027555;28;1902;-57
2024/02/25 12:35:22;;;;;;;;;;;;;;;17.60;49.60;100832.50;5037760;28;918;-58
2024/02/25 12:37:48;;;;;;;;;;;;;;;16.68;51.88;100832.53;5070215;28;852;-59
2024/02/25 12:40:16;;;;;;;;;;;;;;;16.22;53.09;100822.28;5038854;28;1044;-60
2024/02/25 12:42:48;;;;;;;;;;;;;;;15.96;53.55;100816.69;5038558;28;1035;-59